| time (UTC) | temp C | wind direction | speed KPH | gust KPH | rain 1hr cm | rain 24hr cm | rain mn cm | humidity % | barometer mb |
| 20260906123646 | 23 | 245 | 0.0 | 0.0 | 0.00 | 0.25 | 0.00 | 95 | 1009.7 |
| 20260906122146 | 23 | 245 | 0.0 | 0.0 | 0.00 | 0.25 | 0.00 | 95 | 1009.5 |
| 20260906120646 | 22 | 245 | 0.0 | 0.0 | 0.00 | 0.25 | 0.00 | 94 | 1009.4 |
| 20260906115146 | 22 | 245 | 0.0 | 0.0 | 0.00 | 0.25 | 0.00 | 93 | 1009.3 |
| 20260906113646 | 22 | 245 | 0.0 | 0.0 | 0.00 | 0.25 | 0.00 | 93 | 1009.2 |
| 20260906112146 | 22 | 245 | 0.0 | 0.0 | 0.00 | 0.25 | 0.00 | 93 | 1009.0 |
| 20260906110646 | 23 | 245 | 0.0 | 0.0 | 0.00 | 0.25 | 0.00 | 93 | 1008.7 |
| 20260906105146 | 23 | 245 | 0.0 | 0.0 | 0.00 | 0.25 | 0.00 | 92 | 1008.4 |
| 20260906103646 | 23 | 245 | 0.0 | 0.0 | 0.00 | 0.25 | 0.00 | 92 | 1008.5 |
| 20260906102147 | 23 | 245 | 0.0 | 0.0 | 0.00 | 0.25 | 0.00 | 91 | 1008.5 |
| 20260906100646 | 23 | 245 | 0.0 | 0.0 | 0.00 | 0.25 | 0.00 | 90 | 1008.5 |
| 20260906095147 | 23 | 245 | 0.0 | 0.0 | 0.00 | 0.25 | 0.00 | 91 | 1008.6 |
| 20260906093647 | 23 | 234 | 0.0 | 0.0 | 0.00 | 0.25 | 0.00 | 90 | 1008.6 |
| 20260906092147 | 24 | 234 | 0.0 | 0.0 | 0.00 | 0.25 | 0.00 | 88 | 1008.9 |
| 20260906090647 | 24 | 84 | 0.0 | 1.6 | 0.00 | 0.25 | 0.00 | 87 | 1008.9 |
| 20260906085147 | 24 | 84 | 0.0 | 1.6 | 0.00 | 0.25 | 0.00 | 87 | 1009.1 |
| 20260906083647 | 23 | 73 | 0.0 | 1.6 | 0.00 | 0.25 | 0.00 | 89 | 1009.3 |
| 20260906082147 | 23 | 50 | 0.0 | 1.6 | 0.00 | 0.25 | 0.00 | 94 | 1009.4 |
| 20260906080647 | 23 | 32 | 0.0 | 0.0 | 0.00 | 0.25 | 0.00 | 95 | 1009.2 |
| 20260906075147 | 23 | 32 | 0.0 | 0.0 | 0.00 | 0.25 | 0.00 | 95 | 1009.0 |
| 20260906073647 | 23 | 32 | 0.0 | 0.0 | 0.00 | 0.25 | 0.00 | 95 | 1008.5 |
| 20260906072147 | 23 | 32 | 0.0 | 0.0 | 0.00 | 0.25 | 0.00 | 95 | 1008.5 |
| 20260906070647 | 23 | 32 | 0.0 | 0.0 | 0.00 | 0.25 | 0.00 | 95 | 1008.9 |
| 20260906065147 | 23 | 66 | 0.0 | 0.0 | 0.00 | 0.25 | 0.00 | 95 | 1009.2 |
| 20260906063647 | 23 | 67 | 0.0 | 0.0 | 0.00 | 0.25 | 0.00 | 96 | 1009.0 |
| 20260906062147 | 23 | 66 | 0.0 | 0.0 | 0.00 | 0.25 | 0.00 | 96 | 1009.3 |
| 20260906060647 | 23 | 66 | 0.0 | 0.0 | 0.00 | 0.25 | 0.00 | 97 | 1009.2 |
| 20260906055147 | 23 | 66 | 0.0 | 0.0 | 0.00 | 0.25 | 0.00 | 97 | 1009.0 |
| 20260906053647 | 23 | 66 | 0.0 | 0.0 | 0.00 | 0.25 | 0.00 | 97 | 1008.9 |
| 20260906052147 | 23 | 67 | 0.0 | 0.0 | 0.00 | 0.25 | 0.00 | 97 | 1008.9 |
| 20260906050647 | 23 | 66 | 0.0 | 0.0 | 0.00 | 0.25 | 0.00 | 97 | 1009.1 |
| 20260906045147 | 23 | 66 | 0.0 | 0.0 | 0.00 | 0.25 | 0.00 | 97 | 1009.2 |
| 20260906043647 | 23 | 66 | 0.0 | 0.0 | 0.00 | 0.25 | 0.00 | 97 | 1009.5 |
| 20260906042147 | 23 | 66 | 0.0 | 0.0 | 0.00 | 0.25 | 0.00 | 97 | 1009.5 |
| 20260906040647 | 23 | 67 | 0.0 | 0.0 | 0.00 | 0.25 | 0.00 | 96 | 1009.5 |
| 20260906035148 | 23 | 66 | 0.0 | 0.0 | 0.00 | 0.25 | 0.25 | 96 | 1009.4 |
| 20260906033647 | 24 | 66 | 0.0 | 0.0 | 0.00 | 0.25 | 0.25 | 96 | 1009.5 |
| 20260906032148 | 24 | 66 | 0.0 | 0.0 | 0.00 | 0.25 | 0.25 | 96 | 1009.6 |
| 20260906030648 | 24 | 66 | 0.0 | 0.0 | 0.00 | 0.25 | 0.25 | 96 | 1009.6 |
| 20260906025148 | 24 | 66 | 0.0 | 0.0 | 0.00 | 0.25 | 0.25 | 96 | 1009.6 |
| 20260906023648 | 24 | 66 | 0.0 | 0.0 | 0.00 | 0.25 | 0.25 | 95 | 1009.1 |
| 20260906022148 | 24 | 66 | 0.0 | 0.0 | 0.00 | 0.25 | 0.25 | 94 | 1008.9 |
| 20260906020648 | 25 | 66 | 0.0 | 0.0 | 0.00 | 0.25 | 0.25 | 94 | 1008.8 |
| 20260906015148 | 25 | 66 | 0.0 | 0.0 | 0.00 | 0.25 | 0.25 | 93 | 1008.8 |
| 20260906013648 | 25 | 66 | 0.0 | 0.0 | 0.00 | 0.25 | 0.25 | 93 | 1008.6 |
| 20260906012148 | 25 | 66 | 0.0 | 0.0 | 0.00 | 0.25 | 0.25 | 92 | 1008.3 |
| 20260906010648 | 25 | 66 | 0.0 | 0.0 | 0.00 | 0.25 | 0.25 | 91 | 1008.5 |
| 20260906005148 | 25 | 66 | 0.0 | 0.0 | 0.00 | 0.25 | 0.25 | 91 | 1008.3 |
| 20260906003648 | 25 | 66 | 0.0 | 0.0 | 0.00 | 0.25 | 0.25 | 90 | 1008.1 |
| 20260906002148 | 25 | 66 | 0.0 | 0.0 | 0.00 | 0.25 | 0.25 | 89 | 1008.0 |
| 20260906000648 | 26 | 66 | 0.0 | 0.0 | 0.00 | 0.25 | 0.25 | 88 | 1008.0 |
| 20260905235148 | 26 | 66 | 0.0 | 0.0 | 0.00 | 0.25 | 0.25 | 85 | 1008.4 |
| 20260905233648 | 26 | 66 | 0.0 | 0.0 | 0.00 | 0.25 | 0.25 | 85 | 1008.2 |
| 20260905232148 | 27 | 66 | 0.0 | 0.0 | 0.00 | 0.25 | 0.25 | 83 | 1008.1 |
| 20260905230648 | 27 | 67 | 0.0 | 0.0 | 0.00 | 0.25 | 0.25 | 84 | 1007.7 |
| 20260905225148 | 27 | 66 | 0.0 | 0.0 | 0.00 | 0.25 | 0.25 | 81 | 1007.8 |
| 20260905223648 | 27 | 66 | 0.0 | 0.0 | 0.00 | 0.25 | 0.25 | 82 | 1007.8 |
| 20260905222148 | 28 | 66 | 0.0 | 0.0 | 0.00 | 0.25 | 0.25 | 80 | 1008.0 |
| 20260905220648 | 29 | 66 | 0.0 | 0.0 | 0.00 | 0.25 | 0.25 | 78 | 1008.2 |
| 20260905215148 | 30 | 66 | 0.0 | 0.0 | 0.00 | 0.25 | 0.25 | 73 | 1008.4 |
| 20260905213648 | 29 | 250 | 0.0 | 3.2 | 0.00 | 0.25 | 0.25 | 80 | 1008.5 |
| 20260905212149 | 28 | 135 | 0.0 | 0.0 | 0.00 | 0.25 | 0.25 | 83 | 1008.3 |
| 20260905210649 | 26 | 130 | 0.0 | 0.0 | 0.23 | 0.25 | 0.25 | 93 | 1008.5 |
| 20260905205149 | 25 | 121 | 0.0 | 0.0 | 0.25 | 0.25 | 0.25 | 95 | 1008.7 |
| 20260905203649 | 25 | 121 | 0.0 | 0.0 | 0.25 | 0.25 | 0.25 | 94 | 1008.8 |
| 20260905202149 | 25 | 109 | 0.0 | 1.6 | 0.25 | 0.25 | 0.25 | 91 | 1008.4 |
| 20260905200649 | 27 | 92 | 1.6 | 8.0 | 0.03 | 0.03 | 0.03 | 77 | 1008.7 |
| 20260905195149 | 32 | 106 | 3.2 | 11.3 | 0.00 | 0.00 | 0.00 | 69 | 1009.0 |
| 20260905193649 | 35 | 240 | 1.6 | 4.8 | 0.00 | 0.00 | 0.00 | 55 | 1008.3 |
| 20260905192149 | 34 | 233 | 1.6 | 1.6 | 0.00 | 0.00 | 0.00 | 60 | 1008.5 |
| 20260905190649 | 33 | 213 | 1.6 | 4.8 | 0.00 | 0.00 | 0.00 | 59 | 1008.5 |
| 20260905185149 | 33 | 217 | 0.0 | 3.2 | 0.00 | 0.00 | 0.00 | 64 | 1008.9 |
| 20260905183649 | 33 | 86 | 0.0 | 1.6 | 0.00 | 0.00 | 0.00 | 68 | 1008.7 |
| 20260905182149 | 33 | 74 | 0.0 | 0.0 | 0.00 | 0.00 | 0.00 | 61 | 1009.0 |
| 20260905180649 | 35 | 74 | 0.0 | 1.6 | 0.00 | 0.00 | 0.00 | 58 | 1009.3 |
| 20260905175149 | 36 | 202 | 0.0 | 1.6 | 0.00 | 0.00 | 0.00 | 56 | 1009.1 |
| 20260905173649 | 35 | 130 | 1.6 | 3.2 | 0.00 | 0.00 | 0.00 | 61 | 1009.3 |
| 20260905172149 | 35 | 86 | 0.0 | 1.6 | 0.00 | 0.00 | 0.00 | 56 | 1009.6 |
| 20260905170649 | 34 | 237 | 0.0 | 3.2 | 0.00 | 0.00 | 0.00 | 58 | 1009.7 |
| 20260905165149 | 33 | 232 | 0.0 | 1.6 | 0.00 | 0.00 | 0.00 | 62 | 1009.8 |
| 20260905163649 | 33 | 238 | 0.0 | 1.6 | 0.00 | 0.00 | 0.00 | 66 | 1010.1 |
| 20260905162149 | 33 | 243 | 0.0 | 3.2 | 0.00 | 0.00 | 0.00 | 72 | 1010.3 |
| 20260905160649 | 32 | 246 | 0.0 | 1.6 | 0.00 | 0.00 | 0.00 | 72 | 1010.3 |
| 20260905155149 | 31 | 58 | 0.0 | 3.2 | 0.00 | 0.00 | 0.00 | 73 | 1010.5 |
| 20260905153650 | 31 | 237 | 0.0 | 3.2 | 0.00 | 0.00 | 0.00 | 77 | 1010.7 |
| 20260905152149 | 30 | 89 | 0.0 | 3.2 | 0.00 | 0.00 | 0.00 | 80 | 1010.8 |
| 20260905150650 | 29 | 242 | 0.0 | 0.0 | 0.00 | 0.00 | 0.00 | 81 | 1010.8 |
| 20260905145150 | 28 | 240 | 0.0 | 1.6 | 0.00 | 0.00 | 0.00 | 83 | 1010.9 |
| 20260905143650 | 28 | 243 | 0.0 | 1.6 | 0.00 | 0.00 | 0.00 | 84 | 1011.1 |
| 20260905142150 | 27 | 75 | 0.0 | 0.0 | 0.00 | 0.00 | 0.00 | 86 | 1011.0 |
| 20260905140650 | 26 | 75 | 0.0 | 1.6 | 0.00 | 0.00 | 0.00 | 89 | 1011.1 |
| 20260905135150 | 26 | 75 | 0.0 | 1.6 | 0.00 | 0.00 | 0.00 | 91 | 1011.2 |
| 20260905133650 | 26 | 75 | 0.0 | 0.0 | 0.00 | 0.00 | 0.00 | 92 | 1011.3 |
| 20260905132150 | 25 | 75 | 0.0 | 0.0 | 0.00 | 0.00 | 0.00 | 92 | 1011.4 |
| 20260905130650 | 25 | 75 | 0.0 | 0.0 | 0.00 | 0.00 | 0.00 | 94 | 1011.5 |
| 20260905125150 | 25 | 75 | 0.0 | 0.0 | 0.00 | 0.00 | 0.00 | 95 | 1011.5 |